createdAt,value
2018-09-09T00:00:36.330Z,77.29
2018-09-09T00:01:36.308Z,77.81
2018-09-09T00:02:36.357Z,77.81
2018-09-09T00:03:36.296Z,77.74
2018-09-09T00:04:36.276Z,77.81
2018-09-09T00:05:36.281Z,77.81
2018-09-09T00:06:36.263Z,77.91
2018-09-09T00:07:36.295Z,77.91
2018-09-09T00:08:36.241Z,77.60
2018-09-09T00:09:36.232Z,77.29
2018-09-09T00:10:36.222Z,77.74
2018-09-09T00:11:36.211Z,78.41
2018-09-09T00:12:36.236Z,77.50
2018-09-09T00:13:36.188Z,78.21
2018-09-09T00:14:36.167Z,78.35
2018-09-09T00:15:36.166Z,78.45
2018-09-09T00:16:36.149Z,78.96
2018-09-09T00:17:36.187Z,78.55
2018-09-09T00:18:36.120Z,78.31
2018-09-09T00:19:36.109Z,78.41
2018-09-09T00:20:36.103Z,78.52
2018-09-09T00:21:36.086Z,78.96
2018-09-09T00:22:36.213Z,78.31
2018-09-09T00:23:36.068Z,79.13
2018-09-09T00:24:36.044Z,79.23
2018-09-09T00:25:36.038Z,79.23
2018-09-09T00:26:36.032Z,79.68
2018-09-09T00:27:36.050Z,79.27
2018-09-09T00:28:36.007Z,79.47
2018-09-09T00:29:36.036Z,80.38
2018-09-09T00:30:35.982Z,79.68
2018-09-09T00:31:35.971Z,79.77
2018-09-09T00:32:35.965Z,79.98
2018-09-09T00:33:35.974Z,80.08
2018-09-09T00:34:35.936Z,79.77
2018-09-09T00:35:35.926Z,80.29
2018-09-09T00:36:35.916Z,80.38
2018-09-09T00:37:35.943Z,80.49
2018-09-09T00:38:35.888Z,80.73
2018-09-09T00:39:35.906Z,80.32
2018-09-09T00:40:35.870Z,80.42
2018-09-09T00:41:35.856Z,80.42
2018-09-09T00:42:35.847Z,81.54
2018-09-09T00:43:35.836Z,80.52
2018-09-09T00:44:35.852Z,80.52
2018-09-09T00:45:35.815Z,81.34
2018-09-09T00:46:35.809Z,81.24
2018-09-09T00:47:35.792Z,80.42
2018-09-09T00:48:35.810Z,80.42
2018-09-09T00:49:35.780Z,80.93
2018-09-09T00:50:35.803Z,80.32
2018-09-09T00:51:35.753Z,80.52
2018-09-09T00:52:35.746Z,80.02
2018-09-09T00:53:35.734Z,81.13
2018-09-09T00:54:35.726Z,80.32
2018-09-09T00:55:35.768Z,79.71
2018-09-09T00:56:35.696Z,79.20
2018-09-09T00:57:35.686Z,79.47
2018-09-09T00:58:35.673Z,79.27
2018-09-09T00:59:35.664Z,79.27
2018-09-09T01:00:35.697Z,79.27
2018-09-09T01:01:35.639Z,79.68
2018-09-09T01:02:35.672Z,79.27
2018-09-09T01:03:35.614Z,79.68
2018-09-09T01:04:35.608Z,80.29
2018-09-09T01:05:35.626Z,80.63
2018-09-09T01:06:35.602Z,80.79
2018-09-09T01:07:35.609Z,80.08
2018-09-09T01:08:35.563Z,80.63
2018-09-09T01:09:35.551Z,80.11
2018-09-09T01:10:35.543Z,79.61
2018-09-09T01:11:35.566Z,79.81
2018-09-09T01:12:35.516Z,80.22
2018-09-09T01:13:35.514Z,79.98
2018-09-09T01:14:35.494Z,80.02
2018-09-09T01:15:35.481Z,80.22
2018-09-09T01:16:35.547Z,80.83
2018-09-09T01:17:35.471Z,80.52
2018-09-09T01:18:35.461Z,80.52
2018-09-09T01:19:35.440Z,80.08
2018-09-09T01:20:35.429Z,79.30
2018-09-09T01:21:35.452Z,79.37
2018-09-09T01:22:35.396Z,79.98
2018-09-09T01:23:35.390Z,79.47
2018-09-09T01:24:35.370Z,79.81
2018-09-09T01:25:35.364Z,79.47
2018-09-09T01:26:35.398Z,79.61
2018-09-09T01:27:35.351Z,79.41
2018-09-09T01:28:35.332Z,79.37
2018-09-09T01:29:35.311Z,79.37
2018-09-09T01:30:35.309Z,79.37
2018-09-09T01:31:35.342Z,79.27
2018-09-09T01:32:35.280Z,79.41
2018-09-09T01:33:35.273Z,79.16
2018-09-09T01:34:35.259Z,79.47
2018-09-09T01:35:35.253Z,79.41
2018-09-09T01:36:35.268Z,79.27
2018-09-09T01:37:35.229Z,79.16
2018-09-09T01:38:35.256Z,79.27
2018-09-09T01:39:35.204Z,79.68
2018-09-09T01:40:35.204Z,79.77
2018-09-09T01:41:35.180Z,79.27
2018-09-09T01:42:35.177Z,79.57
2018-09-09T01:43:35.205Z,79.16
2018-09-09T01:44:35.144Z,78.35
2018-09-09T01:45:35.138Z,78.66
2018-09-09T01:46:35.129Z,78.96
2018-09-09T01:47:35.109Z,78.80
2018-09-09T01:48:35.142Z,78.55
2018-09-09T01:49:35.132Z,78.86
2018-09-09T01:50:35.086Z,78.45
2018-09-09T01:51:35.069Z,78.86
2018-09-09T01:52:35.058Z,78.25
2018-09-09T01:53:35.078Z,78.15
2018-09-09T01:54:35.076Z,78.55
2018-09-09T01:55:35.069Z,78.80
2018-09-09T01:56:35.026Z,79.30
2018-09-09T01:57:35.014Z,79.30
2018-09-09T01:58:35.002Z,78.80
2018-09-09T01:59:35.030Z,78.55
2018-09-09T02:00:34.974Z,78.55
2018-09-09T02:01:34.979Z,78.15
2018-09-09T02:02:34.956Z,78.66
2018-09-09T02:03:34.949Z,78.86
2018-09-09T02:04:34.987Z,78.96
2018-09-09T02:05:34.932Z,78.25
2018-09-09T02:06:34.918Z,78.35
2018-09-09T02:07:34.905Z,78.55
2018-09-09T02:08:34.884Z,78.35
2018-09-09T02:09:34.920Z,78.76
2018-09-09T02:10:34.866Z,79.06
2018-09-09T02:11:34.891Z,78.76
2018-09-09T02:12:34.849Z,78.25
2018-09-09T02:13:34.830Z,78.66
2018-09-09T02:14:34.824Z,78.35
2018-09-09T02:15:34.816Z,78.45
2018-09-09T02:16:34.872Z,79.16
2018-09-09T02:17:34.788Z,79.27
2018-09-09T02:18:34.774Z,79.27
2018-09-09T02:19:34.799Z,79.37
2018-09-09T02:20:34.769Z,79.27
2018-09-09T02:21:34.773Z,79.27
2018-09-09T02:22:34.749Z,79.00
2018-09-09T02:23:34.728Z,79.61
2018-09-09T02:24:34.724Z,79.50
2018-09-09T02:25:34.742Z,79.20
2018-09-09T02:26:34.724Z,79.71
2018-09-09T02:27:34.685Z,79.71
2018-09-09T02:28:34.657Z,79.61
2018-09-09T02:29:34.663Z,79.61
2018-09-09T02:30:34.628Z,79.50
2018-09-09T02:31:34.656Z,79.37
2018-09-09T02:32:34.664Z,79.20
2018-09-09T02:33:34.626Z,79.20
2018-09-09T02:34:34.594Z,79.30
2018-09-09T02:35:34.578Z,79.41
2018-09-09T02:36:34.574Z,79.20
2018-09-09T02:37:34.619Z,79.41
2018-09-09T02:38:34.551Z,79.81
2018-09-09T02:39:34.553Z,79.91
2018-09-09T02:40:34.537Z,80.73
2018-09-09T02:41:34.512Z,80.63
2018-09-09T02:42:34.532Z,81.17
2018-09-09T02:43:34.547Z,80.52
2018-09-09T02:44:34.485Z,81.74
2018-09-09T02:45:34.479Z,81.34
2018-09-09T02:46:34.502Z,81.27
2018-09-09T02:47:34.471Z,81.27
2018-09-09T02:48:34.467Z,81.48
2018-09-09T02:49:34.432Z,81.88
2018-09-09T02:50:34.416Z,81.68
2018-09-09T02:51:34.395Z,81.99
2018-09-09T02:52:34.432Z,81.99
2018-09-09T02:53:34.385Z,81.58
2018-09-09T02:54:34.371Z,81.58
2018-09-09T02:55:34.354Z,82.19
2018-09-09T02:56:34.354Z,82.33
2018-09-09T02:57:34.370Z,83.76
2018-09-09T02:58:34.340Z,83.76
2018-09-09T02:59:34.335Z,83.56
2018-09-09T03:00:34.353Z,83.35
2018-09-09T03:01:34.299Z,83.76
2018-09-09T03:02:34.317Z,83.65
2018-09-09T03:03:34.276Z,83.76
2018-09-09T03:04:34.300Z,85.33
2018-09-09T03:05:34.255Z,84.41
2018-09-09T03:06:34.249Z,82.98
2018-09-09T03:07:34.233Z,84.11
2018-09-09T03:08:34.260Z,83.59
2018-09-09T03:09:34.205Z,83.90
2018-09-09T03:10:34.253Z,83.59
2018-09-09T03:11:34.197Z,83.73
2018-09-09T03:12:34.198Z,84.31
2018-09-09T03:13:34.208Z,84.04
2018-09-09T03:14:34.146Z,85.33
2018-09-09T03:15:34.147Z,84.45
2018-09-09T03:16:34.140Z,84.66
2018-09-09T03:17:34.111Z,84.55
2018-09-09T03:18:34.137Z,84.45
2018-09-09T03:19:34.114Z,84.66
2018-09-09T03:20:34.095Z,84.34
2018-09-09T03:21:34.074Z,84.66
2018-09-09T03:22:34.099Z,85.37
2018-09-09T03:23:34.056Z,85.98
2018-09-09T03:24:34.052Z,85.77
2018-09-09T03:25:34.023Z,85.47
2018-09-09T03:26:34.022Z,84.55
2018-09-09T03:27:34.041Z,84.45
2018-09-09T03:28:34.044Z,83.90
2018-09-09T03:29:34.007Z,84.04
2018-09-09T03:30:33.979Z,83.59
2018-09-09T03:31:33.953Z,83.59
2018-09-09T03:32:33.943Z,83.18
2018-09-09T03:33:33.934Z,83.09
2018-09-09T03:34:33.961Z,83.25
2018-09-09T03:35:33.897Z,82.54
2018-09-09T03:36:33.938Z,82.54
2018-09-09T03:37:33.887Z,82.13
2018-09-09T03:38:33.875Z,82.23
2018-09-09T03:39:33.859Z,81.82
2018-09-09T03:40:33.887Z,82.07
2018-09-09T03:41:33.867Z,82.03
2018-09-09T03:42:33.822Z,82.33
2018-09-09T03:43:33.853Z,82.27
2018-09-09T03:44:33.817Z,81.82
2018-09-09T03:45:33.796Z,81.93
2018-09-09T03:46:33.789Z,81.93
2018-09-09T03:47:33.767Z,82.03
2018-09-09T03:48:33.814Z,81.93
2018-09-09T03:49:33.799Z,81.27
2018-09-09T03:50:33.793Z,81.41
2018-09-09T03:51:33.733Z,81.52
2018-09-09T03:52:33.711Z,81.52
2018-09-09T03:53:33.702Z,81.58
2018-09-09T03:54:33.683Z,81.21
2018-09-09T03:55:33.707Z,81.82
2018-09-09T03:56:33.689Z,82.13
2018-09-09T03:57:33.677Z,81.93
2018-09-09T03:58:33.658Z,82.33
2018-09-09T03:59:33.635Z,81.68
2018-09-09T04:00:33.667Z,82.19
2018-09-09T04:01:33.625Z,81.93
2018-09-09T04:02:33.615Z,81.88
2018-09-09T04:03:33.600Z,82.03
2018-09-09T04:04:33.596Z,82.13
2018-09-09T04:05:33.621Z,82.23
2018-09-09T04:06:33.561Z,82.13
2018-09-09T04:07:33.554Z,82.84
2018-09-09T04:08:33.548Z,82.84
2018-09-09T04:09:33.534Z,82.84
2018-09-09T04:10:33.590Z,83.18
2018-09-09T04:11:33.500Z,83.56
2018-09-09T04:12:33.492Z,83.80
2018-09-09T04:13:33.490Z,83.70
2018-09-09T04:14:33.470Z,83.80
2018-09-09T04:15:33.510Z,85.13
2018-09-09T04:16:33.447Z,85.33
2018-09-09T04:17:33.435Z,85.22
2018-09-09T04:18:33.417Z,85.22
2018-09-09T04:19:33.409Z,85.33
2018-09-09T04:20:33.433Z,86.29
2018-09-09T04:21:33.425Z,87.14
2018-09-09T04:22:33.374Z,87.55
2018-09-09T04:23:33.367Z,88.17
2018-09-09T04:24:33.365Z,88.17
2018-09-09T04:25:33.343Z,88.67
2018-09-09T04:26:33.356Z,88.78
2018-09-09T04:27:33.313Z,88.82
2018-09-09T04:28:33.331Z,88.92
2018-09-09T04:29:33.289Z,88.71
2018-09-09T04:30:33.292Z,88.51
2018-09-09T04:31:33.316Z,88.82
2018-09-09T04:32:33.278Z,89.73
2018-09-09T04:33:33.245Z,89.23
2018-09-09T04:34:33.252Z,88.82
2018-09-09T04:35:33.248Z,89.32
2018-09-09T04:36:33.264Z,89.63
2018-09-09T04:37:33.212Z,89.58
2018-09-09T04:38:33.236Z,89.67
2018-09-09T04:39:33.194Z,89.88
2018-09-09T04:40:33.188Z,90.70
2018-09-09T04:41:33.176Z,91.00
2018-09-09T04:42:33.190Z,90.59
2018-09-09T04:43:33.148Z,90.80
2018-09-09T04:44:33.150Z,90.49
2018-09-09T04:45:33.126Z,90.59
2018-09-09T04:46:33.108Z,89.88
2018-09-09T04:47:33.150Z,90.43
2018-09-09T04:48:33.092Z,90.43
2018-09-09T04:49:33.082Z,91.05
2018-09-09T04:50:33.064Z,90.74
2018-09-09T04:51:33.054Z,90.74
2018-09-09T04:52:33.080Z,91.05
2018-09-09T04:53:33.027Z,90.94
2018-09-09T04:54:33.068Z,91.66
2018-09-09T04:55:33.018Z,90.84
2018-09-09T04:56:32.998Z,90.84
2018-09-09T04:57:33.000Z,91.15
2018-09-09T04:58:33.008Z,90.43
2018-09-09T04:59:33.004Z,90.64
2018-09-09T05:00:32.970Z,90.29
2018-09-09T05:01:32.942Z,91.15
2018-09-09T05:02:32.934Z,91.05
2018-09-09T05:03:32.929Z,91.05
2018-09-09T05:04:32.954Z,91.15
2018-09-09T05:05:32.944Z,91.46
2018-09-09T05:06:32.885Z,91.56
2018-09-09T05:07:32.864Z,91.86
2018-09-09T05:08:32.860Z,91.86
2018-09-09T05:09:32.845Z,91.76
2018-09-09T05:10:32.867Z,92.07
2018-09-09T05:11:32.823Z,92.11
2018-09-09T05:12:32.824Z,92.47
2018-09-09T05:13:32.806Z,92.72
2018-09-09T05:14:32.801Z,92.47
2018-09-09T05:15:32.817Z,92.72
2018-09-09T05:16:32.769Z,93.24
2018-09-09T05:17:32.763Z,92.58
2018-09-09T05:18:32.739Z,92.93
2018-09-09T05:19:32.773Z,93.44
2018-09-09T05:20:32.779Z,93.29
2018-09-09T05:21:32.757Z,93.44
2018-09-09T05:22:32.707Z,93.33
2018-09-09T05:23:32.706Z,92.99
2018-09-09T05:24:32.723Z,93.40
2018-09-09T05:25:32.695Z,92.88
2018-09-09T05:26:32.657Z,92.07
2018-09-09T05:27:32.654Z,92.23
2018-09-09T05:28:32.668Z,91.82
2018-09-09T05:29:32.640Z,90.80
2018-09-09T05:30:32.675Z,90.35
2018-09-09T05:31:32.606Z,89.49
2018-09-09T05:32:32.599Z,88.47
2018-09-09T05:33:32.579Z,87.96
2018-09-09T05:34:32.576Z,88.02
2018-09-09T05:35:32.601Z,87.71
2018-09-09T05:36:32.545Z,86.80
2018-09-09T05:37:32.545Z,85.74
2018-09-09T05:38:32.537Z,85.94
2018-09-09T05:39:32.525Z,85.33
2018-09-09T05:40:32.539Z,85.13
2018-09-09T05:41:32.516Z,85.19
2018-09-09T05:42:32.518Z,84.37
2018-09-09T05:43:32.513Z,84.67
2018-09-09T05:44:32.525Z,83.72
2018-09-09T05:45:32.448Z,83.62
2018-09-09T05:46:32.447Z,82.90
2018-09-09T05:47:32.476Z,83.72
2018-09-09T05:48:32.423Z,82.97
2018-09-09T05:49:32.436Z,82.56
2018-09-09T05:50:32.402Z,82.35
2018-09-09T05:51:32.402Z,81.60
2018-09-09T05:52:32.415Z,80.62
2018-09-09T05:53:32.378Z,79.46
2018-09-09T05:54:32.381Z,78.20
2018-09-09T05:55:32.335Z,78.10
2018-09-09T05:56:32.335Z,77.15
2018-09-09T05:57:32.389Z,76.85
2018-09-09T05:58:32.347Z,76.75
2018-09-09T05:59:32.359Z,74.54
2018-09-09T06:00:32.334Z,73.39
2018-09-09T06:01:32.294Z,73.39
2018-09-09T06:02:32.413Z,74.95
2018-09-09T06:03:32.284Z,75.29
2018-09-09T06:04:32.284Z,75.79
2018-09-09T06:05:32.254Z,77.05
2018-09-09T06:06:32.237Z,77.36
2018-09-09T06:07:32.251Z,76.85
2018-09-09T06:08:32.263Z,77.29
2018-09-09T06:09:32.241Z,77.59
2018-09-09T06:10:32.227Z,76.95
2018-09-09T06:11:32.156Z,77.25
2018-09-09T06:12:32.159Z,76.95
2018-09-09T06:13:32.166Z,76.75
2018-09-09T06:14:32.151Z,76.95
2018-09-09T06:15:32.108Z,77.66
2018-09-09T06:16:32.128Z,76.75
2018-09-09T06:17:32.097Z,76.95
2018-09-09T06:18:32.130Z,76.10
2018-09-09T06:19:32.073Z,75.96
2018-09-09T06:20:32.052Z,76.17
2018-09-09T06:21:32.045Z,76.27
2018-09-09T06:22:32.050Z,74.71
2018-09-09T06:23:32.059Z,73.97
2018-09-09T06:24:32.111Z,73.73
2018-09-09T06:25:32.048Z,72.92
2018-09-09T06:26:32.056Z,73.66
2018-09-09T06:27:32.072Z,73.66
2018-09-09T06:28:32.035Z,73.36
2018-09-09T06:29:32.076Z,73.39
2018-09-09T06:30:31.955Z,72.85
2018-09-09T06:31:31.969Z,71.40
2018-09-09T06:32:31.947Z,71.60
2018-09-09T06:33:31.918Z,71.70
2018-09-09T06:34:31.971Z,70.86
2018-09-09T06:35:31.895Z,71.47
2018-09-09T06:36:31.869Z,71.37
2018-09-09T06:37:31.853Z,71.16
2018-09-09T06:38:31.857Z,71.88
2018-09-09T06:39:31.897Z,70.83
2018-09-09T06:40:31.829Z,70.96
2018-09-09T06:41:31.809Z,70.86
2018-09-09T06:42:31.809Z,70.32
2018-09-09T06:43:31.797Z,71.44
2018-09-09T06:44:31.831Z,71.03
2018-09-09T06:45:31.775Z,70.59
2018-09-09T06:46:31.886Z,69.98
2018-09-09T06:47:31.753Z,69.78
2018-09-09T06:48:31.751Z,69.48
2018-09-09T06:49:31.763Z,68.97
2018-09-09T06:50:31.721Z,69.27
2018-09-09T06:51:31.743Z,69.27
2018-09-09T06:52:31.705Z,69.38
2018-09-09T06:53:31.696Z,69.38
2018-09-09T06:54:31.675Z,68.47
2018-09-09T06:55:31.769Z,69.07
2018-09-09T06:56:31.651Z,68.57
2018-09-09T06:57:31.648Z,68.87
2018-09-09T06:58:31.630Z,68.77
2018-09-09T06:59:31.621Z,69.38
2018-09-09T07:00:31.659Z,69.48
2018-09-09T07:01:31.596Z,69.45
2018-09-09T07:02:31.608Z,68.33
2018-09-09T07:03:31.582Z,68.74
2018-09-09T07:04:31.560Z,68.03
2018-09-09T07:05:31.586Z,68.33
2018-09-09T07:06:31.538Z,68.23
2018-09-09T07:07:31.527Z,68.63
2018-09-09T07:08:31.526Z,67.72
2018-09-09T07:09:31.507Z,68.23
2018-09-09T07:10:31.546Z,68.63
2018-09-09T07:11:31.544Z,68.84
2018-09-09T07:12:31.478Z,68.23
2018-09-09T07:13:31.458Z,68.74
2018-09-09T07:14:31.446Z,68.13
2018-09-09T07:15:31.470Z,68.63
2018-09-09T07:16:31.458Z,68.51
2018-09-09T07:17:31.419Z,68.40
2018-09-09T07:18:31.395Z,67.49
2018-09-09T07:19:31.399Z,66.38
2018-09-09T07:20:31.376Z,67.66
2018-09-09T07:21:31.398Z,66.69
2018-09-09T07:22:31.368Z,66.96
2018-09-09T07:23:31.347Z,66.72
2018-09-09T07:24:31.331Z,64.67
2018-09-09T07:25:31.322Z,64.31
2018-09-09T07:26:31.352Z,62.80
2018-09-09T07:27:31.341Z,62.70
2018-09-09T07:28:31.352Z,63.10
2018-09-09T07:29:31.277Z,64.64
2018-09-09T07:30:31.263Z,64.14
2018-09-09T07:31:31.257Z,64.44
2018-09-09T07:32:31.289Z,63.93
2018-09-09T07:33:31.234Z,63.84
2018-09-09T07:34:31.221Z,63.76
2018-09-09T07:35:31.215Z,63.87
2018-09-09T07:36:31.229Z,64.07
2018-09-09T07:37:31.231Z,64.17
2018-09-09T07:38:31.186Z,63.93
2018-09-09T07:39:31.165Z,63.93
2018-09-09T07:40:31.156Z,63.81
2018-09-09T07:41:31.149Z,63.07
2018-09-09T07:42:31.182Z,63.07
2018-09-09T07:43:31.127Z,62.94
2018-09-09T07:44:31.115Z,62.37
2018-09-09T07:45:31.094Z,61.43
2018-09-09T07:46:31.177Z,61.33
2018-09-09T07:47:31.127Z,61.23
2018-09-09T07:48:31.075Z,61.63
2018-09-09T07:49:31.064Z,61.90
2018-09-09T07:50:31.056Z,60.89
2018-09-09T07:51:31.038Z,62.41
2018-09-09T07:52:31.066Z,61.67
2018-09-09T07:53:31.062Z,61.77
2018-09-09T07:54:31.013Z,60.84
2018-09-09T07:55:30.996Z,59.63
2018-09-09T07:56:30.980Z,60.74
2018-09-09T07:57:30.972Z,59.83
2018-09-09T07:58:30.992Z,59.43
2018-09-09T07:59:30.968Z,59.13
2018-09-09T08:00:30.979Z,59.83
2018-09-09T08:01:30.932Z,58.62
2018-09-09T08:02:30.922Z,59.70
2018-09-09T08:03:30.942Z,58.70
2018-09-09T08:04:30.922Z,58.17
2018-09-09T08:05:30.894Z,55.28
2018-09-09T08:06:30.909Z,55.68
2018-09-09T08:07:30.863Z,56.06
2018-09-09T08:08:30.927Z,55.26
2018-09-09T08:09:30.844Z,54.55
2018-09-09T08:10:30.832Z,54.65
2018-09-09T08:11:30.818Z,54.75
2018-09-09T08:12:30.810Z,54.43
2018-09-09T08:13:30.840Z,54.72
2018-09-09T08:14:30.784Z,54.43
2018-09-09T08:15:30.782Z,54.83
2018-09-09T08:16:30.770Z,54.33
2018-09-09T08:17:30.744Z,54.60
2018-09-09T08:18:30.854Z,54.27
2018-09-09T08:19:30.723Z,54.07
2018-09-09T08:20:30.707Z,53.97
2018-09-09T08:21:30.705Z,53.64
2018-09-09T08:22:30.690Z,53.27
2018-09-09T08:23:30.726Z,52.64
2018-09-09T08:24:30.713Z,52.34
2018-09-09T08:25:30.651Z,52.82
2018-09-09T08:26:30.647Z,52.52
2018-09-09T08:27:30.631Z,50.81
2018-09-09T08:28:30.623Z,50.84
2018-09-09T08:29:30.653Z,52.26
2018-09-09T08:30:30.597Z,51.54
2018-09-09T08:31:30.593Z,50.74
2018-09-09T08:32:30.573Z,50.84
2018-09-09T08:33:30.569Z,51.62
2018-09-09T08:34:30.592Z,51.62
2018-09-09T08:35:30.588Z,51.72
2018-09-09T08:36:30.542Z,52.14
2018-09-09T08:37:30.531Z,52.75
2018-09-09T08:38:30.522Z,52.75
2018-09-09T08:39:30.559Z,52.44
2018-09-09T08:40:30.498Z,51.92
2018-09-09T08:41:30.509Z,53.12
2018-09-09T08:42:30.474Z,52.49
2018-09-09T08:43:30.454Z,52.37
2018-09-09T08:44:31.065Z,51.67
2018-09-09T08:45:30.459Z,52.17
2018-09-09T08:46:30.483Z,50.46
2018-09-09T08:47:30.411Z,50.46
2018-09-09T08:48:30.436Z,51.07
2018-09-09T08:49:30.422Z,50.46
2018-09-09T08:50:30.377Z,50.26
2018-09-09T08:51:30.403Z,51.39
2018-09-09T08:52:30.358Z,51.01
2018-09-09T08:53:30.342Z,51.37
2018-09-09T08:54:30.355Z,50.39
2018-09-09T08:55:30.330Z,50.96
2018-09-09T08:56:30.359Z,50.29
2018-09-09T08:57:30.341Z,50.87
2018-09-09T08:58:30.291Z,50.07
2018-09-09T08:59:30.273Z,49.26
2018-09-09T09:00:30.266Z,49.34
2018-09-09T09:01:30.299Z,49.64
2018-09-09T09:02:30.244Z,49.84
2018-09-09T09:03:30.234Z,49.94
2018-09-09T09:04:30.215Z,49.74
2018-09-09T09:05:30.213Z,50.14
2018-09-09T09:06:30.226Z,49.34
2018-09-09T09:07:30.262Z,49.14
2018-09-09T09:08:30.172Z,49.64
2018-09-09T09:09:30.155Z,49.91
2018-09-09T09:10:30.154Z,50.09
2018-09-09T09:11:30.140Z,48.99
2018-09-09T09:12:30.169Z,48.77
2018-09-09T09:13:30.117Z,47.39
2018-09-09T09:14:30.104Z,48.49
2018-09-09T09:15:30.100Z,49.49
2018-09-09T09:16:30.088Z,48.47
2018-09-09T09:17:30.105Z,48.79
2018-09-09T09:18:30.121Z,48.69
2018-09-09T09:19:30.083Z,47.37
2018-09-09T09:20:30.062Z,47.55
2018-09-09T09:21:30.031Z,47.03
2018-09-09T09:22:30.062Z,47.05
2018-09-09T09:23:30.072Z,46.70
2018-09-09T09:24:30.006Z,45.64
2018-09-09T09:25:29.995Z,45.17
2018-09-09T09:26:30.094Z,45.78
2018-09-09T09:27:30.002Z,45.78
2018-09-09T09:28:29.964Z,45.98
2018-09-09T09:29:29.950Z,46.01
2018-09-09T09:30:29.942Z,45.86
2018-09-09T09:31:29.929Z,45.44
2018-09-09T09:32:29.973Z,45.24
2018-09-09T09:33:29.906Z,43.87
2018-09-09T09:34:29.894Z,43.89
2018-09-09T09:35:29.882Z,43.99
2018-09-09T09:36:29.864Z,44.76
2018-09-09T09:37:29.901Z,45.59
2018-09-09T09:38:29.852Z,45.18
2018-09-09T09:39:30.127Z,44.07
2018-09-09T09:40:29.830Z,43.80
2018-09-09T09:41:29.825Z,42.09
2018-09-09T09:42:29.874Z,41.55
2018-09-09T09:43:29.797Z,41.46
2018-09-09T09:44:29.785Z,41.06
2018-09-09T09:45:29.775Z,41.47
2018-09-09T09:46:29.793Z,41.95
2018-09-09T09:47:29.804Z,42.17
2018-09-09T09:48:29.734Z,42.39
2018-09-09T09:49:29.733Z,42.81
2018-09-09T09:50:29.714Z,42.81
2018-09-09T09:51:29.726Z,42.91
2018-09-09T09:52:29.753Z,42.93
2018-09-09T09:53:29.711Z,43.01
2018-09-09T09:54:29.660Z,43.23
2018-09-09T09:55:29.687Z,43.60
2018-09-09T09:56:29.697Z,42.53
2018-09-09T09:57:29.632Z,44.46
2018-09-09T09:58:29.627Z,44.37
2018-09-09T09:59:29.655Z,44.09
2018-09-09T10:00:29.600Z,43.97
2018-09-09T10:01:29.636Z,44.31
2018-09-09T10:02:29.589Z,44.61
2018-09-09T10:03:29.628Z,44.91
2018-09-09T10:04:29.569Z,44.79
2018-09-09T10:05:29.555Z,44.15
2018-09-09T10:06:29.587Z,43.73
2018-09-09T10:07:29.521Z,42.79
2018-09-09T10:08:29.549Z,40.96
2018-09-09T10:09:29.503Z,40.66
2018-09-09T10:10:29.501Z,39.83
2018-09-09T10:11:29.491Z,38.72
2018-09-09T10:12:29.473Z,38.32
2018-09-09T10:13:29.493Z,36.71
2018-09-09T10:14:29.479Z,36.65
2018-09-09T10:15:29.435Z,36.10
2018-09-09T10:16:29.433Z,34.84
2018-09-09T10:17:29.415Z,34.66
2018-09-09T10:18:29.456Z,36.62
2018-09-09T10:19:29.396Z,38.36
2018-09-09T10:20:29.380Z,38.42
2018-09-09T10:21:29.377Z,38.40
2018-09-09T10:22:29.357Z,36.44
2018-09-09T10:23:29.389Z,36.44
2018-09-09T10:24:29.337Z,35.99
2018-09-09T10:25:29.332Z,32.92
2018-09-09T10:26:29.323Z,31.54
2018-09-09T10:27:29.316Z,30.05
2018-09-09T10:28:29.341Z,30.46
2018-09-09T10:29:29.297Z,30.79
2018-09-09T10:30:29.285Z,30.85
2018-09-09T10:31:29.300Z,31.28
2018-09-09T10:32:29.268Z,32.08
2018-09-09T10:33:29.291Z,30.53
2018-09-09T10:34:29.240Z,30.10
2018-09-09T10:35:29.237Z,29.83
2018-09-09T10:36:29.216Z,28.83
2018-09-09T10:37:29.232Z,30.25
2018-09-09T10:38:29.244Z,30.10
2018-09-09T10:39:29.189Z,31.05
2018-09-09T10:40:29.232Z,30.55
2018-09-09T10:41:29.179Z,30.55
2018-09-09T10:42:29.163Z,30.36
2018-09-09T10:43:29.157Z,30.38
2018-09-09T10:44:29.133Z,30.43
2018-09-09T10:45:29.161Z,29.82
2018-09-09T10:46:29.201Z,28.19
2018-09-09T10:47:29.108Z,28.06
2018-09-09T10:48:29.090Z,28.00
2018-09-09T10:49:29.130Z,29.28
2018-09-09T10:50:29.073Z,28.01
2018-09-09T10:51:29.060Z,28.79
2018-09-09T10:52:29.055Z,28.20
2018-09-09T10:53:29.079Z,28.29
2018-09-09T10:54:29.075Z,27.38
2018-09-09T10:55:29.026Z,27.15
2018-09-09T10:56:29.007Z,27.84
2018-09-09T10:57:28.998Z,28.06
2018-09-09T10:58:29.015Z,28.40
2018-09-09T10:59:28.979Z,29.50
2018-09-09T11:00:29.017Z,28.95
2018-09-09T11:01:28.945Z,29.05
2018-09-09T11:02:28.939Z,30.27
2018-09-09T11:03:28.935Z,30.87
2018-09-09T11:04:28.915Z,30.07
2018-09-09T11:05:28.961Z,30.77
2018-09-09T11:06:28.893Z,30.33
2018-09-09T11:07:28.911Z,29.62
2018-09-09T11:08:28.893Z,29.41
2018-09-09T11:09:28.864Z,28.91
2018-09-09T11:10:28.891Z,29.10
2018-09-09T11:11:28.843Z,28.13
2018-09-09T11:12:28.895Z,28.18
2018-09-09T11:13:28.877Z,28.49
2018-09-09T11:14:28.817Z,27.81
2018-09-09T11:15:28.807Z,27.61
2018-09-09T11:16:28.822Z,28.71
2018-09-09T11:17:28.789Z,28.23
2018-09-09T11:18:28.777Z,28.12
2018-09-09T11:19:28.755Z,27.80
2018-09-09T11:20:28.753Z,28.53
2018-09-09T11:21:28.767Z,28.43
2018-09-09T11:22:28.744Z,29.03
2018-09-09T11:23:28.722Z,29.62
2018-09-09T11:24:28.827Z,29.33
2018-09-09T11:25:28.699Z,28.22
2018-09-09T11:26:28.695Z,28.44
2018-09-09T11:27:28.721Z,27.81
2018-09-09T11:28:28.697Z,27.34
2018-09-09T11:29:28.705Z,26.82
2018-09-09T11:30:28.652Z,26.23
2018-09-09T11:31:28.654Z,26.78
2018-09-09T11:32:28.649Z,28.41
2018-09-09T11:33:28.642Z,29.31
2018-09-09T11:34:28.661Z,27.17
2018-09-09T11:35:28.618Z,27.23
2018-09-09T11:36:28.589Z,27.11
2018-09-09T11:37:28.590Z,25.99
2018-09-09T11:38:28.575Z,25.09
2018-09-09T11:39:28.602Z,25.08
2018-09-09T11:40:28.556Z,24.40
2018-09-09T11:41:28.551Z,24.84
2018-09-09T11:42:28.539Z,26.15
2018-09-09T11:43:28.530Z,26.25
2018-09-09T11:44:28.547Z,27.80
2018-09-09T11:45:28.508Z,30.66
2018-09-09T11:46:28.510Z,31.57
2018-09-09T11:47:28.486Z,32.08
2018-09-09T11:48:28.470Z,32.64
2018-09-09T11:49:28.511Z,33.74
2018-09-09T11:50:28.449Z,32.29
2018-09-09T11:51:28.439Z,31.85
2018-09-09T11:52:28.457Z,30.22
2018-09-09T11:53:28.421Z,31.77
2018-09-09T11:54:28.450Z,33.22
2018-09-09T11:55:28.402Z,32.72
2018-09-09T11:56:28.426Z,34.81
2018-09-09T11:57:28.377Z,32.43
2018-09-09T11:58:28.368Z,31.53
2018-09-09T11:59:28.364Z,30.80
2018-09-09T12:00:28.386Z,30.16
2018-09-09T12:01:28.368Z,28.83
2018-09-09T12:02:28.345Z,29.75
2018-09-09T12:03:28.309Z,29.38
2018-09-09T12:04:28.315Z,30.22
2018-09-09T12:05:28.281Z,31.82
2018-09-09T12:06:28.320Z,31.13
2018-09-09T12:07:28.301Z,31.02
2018-09-09T12:08:28.253Z,31.61
2018-09-09T12:09:28.279Z,31.36
2018-09-09T12:10:28.231Z,31.82
2018-09-09T12:11:28.224Z,31.18
2018-09-09T12:12:28.215Z,32.56
2018-09-09T12:13:28.203Z,32.95
2018-09-09T12:14:28.231Z,31.88
2018-09-09T12:15:28.175Z,32.49
2018-09-09T12:16:28.165Z,34.01
2018-09-09T12:17:28.190Z,35.28
2018-09-09T12:18:28.155Z,34.82
2018-09-09T12:19:28.164Z,34.41
2018-09-09T12:20:28.162Z,35.04
2018-09-09T12:21:28.120Z,35.66
2018-09-09T12:22:28.124Z,36.77
2018-09-09T12:23:28.115Z,37.49
2018-09-09T12:24:28.095Z,37.05
2018-09-09T12:25:28.109Z,36.44
2018-09-09T12:26:28.093Z,34.72
2018-09-09T12:27:28.093Z,33.58
2018-09-09T12:28:28.030Z,32.93
2018-09-09T12:29:28.047Z,31.12
2018-09-09T12:30:28.052Z,30.85
2018-09-09T12:31:28.014Z,32.56
2018-09-09T12:32:28.047Z,34.00
2018-09-09T12:33:27.989Z,35.14
2018-09-09T12:34:27.981Z,34.91
2018-09-09T12:35:27.969Z,33.33
2018-09-09T12:36:27.964Z,31.40
2018-09-09T12:37:27.985Z,30.81
2018-09-09T12:38:27.947Z,30.50
2018-09-09T12:39:27.939Z,30.37
2018-09-09T12:40:27.923Z,29.27
2018-09-09T12:41:27.955Z,29.58
2018-09-09T12:42:27.903Z,31.88
2018-09-09T12:43:27.887Z,34.44
2018-09-09T12:44:27.883Z,34.51
2018-09-09T12:45:27.868Z,32.26
2018-09-09T12:46:28.001Z,31.79
2018-09-09T12:47:27.854Z,29.87
2018-09-09T12:48:27.840Z,30.30
2018-09-09T12:49:27.828Z,32.77
2018-09-09T12:50:27.807Z,35.02
2018-09-09T12:51:27.850Z,35.86
2018-09-09T12:52:27.785Z,37.15